createdAt,value
2022-09-09T00:00:44.278Z,92.20
2022-09-09T00:03:24.600Z,92.20
2022-09-09T00:06:24.611Z,92.30
2022-09-09T00:09:13.217Z,92.70
2022-09-09T00:11:52.302Z,92.60
2022-09-09T00:14:39.488Z,92.40
2022-09-09T00:17:11.027Z,92.20
2022-09-09T00:19:51.408Z,92.20
2022-09-09T00:22:18.376Z,92.10
2022-09-09T00:24:54.383Z,92.30
2022-09-09T00:27:39.291Z,92.50
2022-09-09T00:30:23.880Z,92.60
2022-09-09T00:33:01.247Z,92.60
2022-09-09T00:35:42.339Z,92.40
2022-09-09T00:38:28.206Z,92.60
2022-09-09T00:41:13.950Z,92.50
2022-09-09T00:43:41.902Z,92.70
2022-09-09T00:46:24.784Z,92.50
2022-09-09T00:49:13.879Z,92.50
2022-09-09T00:52:19.666Z,92.50
2022-09-09T00:54:56.535Z,92.80
2022-09-09T00:57:30.987Z,92.50
2022-09-09T01:00:06.531Z,92.50
2022-09-09T01:02:42.900Z,92.50
2022-09-09T01:05:25.799Z,92.80
2022-09-09T01:07:57.689Z,92.50
2022-09-09T01:10:47.866Z,92.50
2022-09-09T01:13:25.599Z,92.90
2022-09-09T01:16:01.648Z,93.10
2022-09-09T01:18:35.810Z,92.90
2022-09-09T01:21:09.900Z,93.00
2022-09-09T01:23:50.189Z,93.00
2022-09-09T01:26:33.461Z,93.00
2022-09-09T01:29:03.844Z,93.00
2022-09-09T01:31:43.091Z,92.90
2022-09-09T01:34:14.702Z,92.90
2022-09-09T01:37:03.432Z,92.80
2022-09-09T01:39:30.415Z,92.80
2022-09-09T01:42:02.073Z,93.10
2022-09-09T01:44:29.055Z,92.90
2022-09-09T01:46:55.970Z,92.70
2022-09-09T01:49:23.083Z,92.60
2022-09-09T01:51:52.718Z,92.80
2022-09-09T01:54:25.177Z,92.70
2022-09-09T01:56:58.779Z,92.80
2022-09-09T01:59:47.591Z,92.90
2022-09-09T02:02:34.525Z,92.80
2022-09-09T02:05:28.268Z,92.60
2022-09-09T02:08:27.446Z,92.90
2022-09-09T02:11:08.389Z,93.00
2022-09-09T02:13:47.563Z,92.80
2022-09-09T02:16:38.973Z,92.60
2022-09-09T02:19:18.193Z,92.70
2022-09-09T02:22:00.995Z,92.90
2022-09-09T02:24:29.258Z,92.90
2022-09-09T02:27:09.873Z,92.90
2022-09-09T02:29:42.481Z,93.20
2022-09-09T02:32:12.557Z,92.80
2022-09-09T02:35:02.371Z,92.90
2022-09-09T02:37:36.374Z,93.10
2022-09-09T02:40:07.902Z,93.10
2022-09-09T02:42:43.066Z,93.10
2022-09-09T02:45:11.523Z,93.20
2022-09-09T02:47:43.809Z,93.00
2022-09-09T02:50:24.342Z,93.00
2022-09-09T02:53:12.674Z,93.20
2022-09-09T02:55:46.024Z,93.30
2022-09-09T02:58:14.633Z,93.10
2022-09-09T03:00:42.501Z,93.10
2022-09-09T03:03:10.360Z,93.00
2022-09-09T03:05:38.469Z,93.10
2022-09-09T03:08:06.601Z,93.30
2022-09-09T03:10:33.991Z,93.20
2022-09-09T03:13:01.161Z,93.20
2022-09-09T03:15:34.203Z,93.40
2022-09-09T03:18:01.294Z,93.20
2022-09-09T03:20:29.099Z,93.20
2022-09-09T03:22:56.319Z,93.10
2022-09-09T03:25:26.786Z,93.50
2022-09-09T03:27:55.972Z,93.30
2022-09-09T03:30:24.745Z,93.30
2022-09-09T03:32:51.621Z,93.30
2022-09-09T03:35:18.683Z,93.20
2022-09-09T03:37:45.670Z,93.10
2022-09-09T03:40:14.255Z,93.20
2022-09-09T03:42:44.105Z,93.20
2022-09-09T03:45:11.753Z,93.10
2022-09-09T03:47:40.661Z,93.00
2022-09-09T03:50:09.659Z,93.40
2022-09-09T03:52:38.857Z,93.20
2022-09-09T03:55:08.588Z,93.20
2022-09-09T03:57:36.973Z,93.10
2022-09-09T04:00:07.920Z,93.10
2022-09-09T04:02:44.599Z,93.10
2022-09-09T04:05:15.662Z,93.20
2022-09-09T04:07:44.293Z,93.10
2022-09-09T04:10:11.537Z,93.20
2022-09-09T04:12:40.349Z,93.10
2022-09-09T04:15:07.877Z,93.20
2022-09-09T04:17:37.408Z,93.20
2022-09-09T04:20:05.032Z,93.30
2022-09-09T04:22:33.048Z,93.20
2022-09-09T04:25:00.410Z,93.20
2022-09-09T04:27:28.542Z,93.10
2022-09-09T04:29:56.367Z,93.20
2022-09-09T04:32:23.780Z,93.30
2022-09-09T04:34:50.643Z,93.00
2022-09-09T04:37:18.226Z,93.20
2022-09-09T04:39:46.271Z,93.20
2022-09-09T04:42:13.234Z,93.20
2022-09-09T04:44:41.874Z,93.40
2022-09-09T04:47:09.355Z,93.10
2022-09-09T04:49:36.448Z,93.20
2022-09-09T04:52:06.456Z,93.40
2022-09-09T04:54:36.147Z,93.40
2022-09-09T04:57:03.237Z,93.40
2022-09-09T04:59:30.191Z,93.60
2022-09-09T05:02:02.085Z,93.40
2022-09-09T05:04:29.888Z,93.50
2022-09-09T05:06:57.049Z,93.30
2022-09-09T05:09:24.705Z,93.40
2022-09-09T05:11:52.488Z,93.40
2022-09-09T05:14:31.162Z,93.70
2022-09-09T05:17:00.472Z,93.40
2022-09-09T05:19:27.900Z,93.30
2022-09-09T05:21:55.023Z,93.30
2022-09-09T05:24:28.116Z,93.20
2022-09-09T05:26:59.214Z,93.30
2022-09-09T05:29:27.708Z,93.30
2022-09-09T05:31:56.405Z,93.40
2022-09-09T05:34:23.542Z,93.50
2022-09-09T05:36:52.249Z,93.30
2022-09-09T05:39:21.200Z,93.20
2022-09-09T05:41:48.157Z,93.10
2022-09-09T05:44:15.237Z,93.20
2022-09-09T05:46:43.576Z,93.50
2022-09-09T05:49:12.100Z,93.30
2022-09-09T05:51:41.367Z,93.30
2022-09-09T05:54:11.679Z,93.40
2022-09-09T05:56:43.230Z,93.70
2022-09-09T05:59:10.708Z,93.60
2022-09-09T06:01:41.621Z,93.50
2022-09-09T06:04:11.162Z,93.50
2022-09-09T06:06:40.957Z,93.40
2022-09-09T06:09:14.635Z,93.30
2022-09-09T06:11:43.456Z,93.20
2022-09-09T06:14:11.424Z,93.20
2022-09-09T06:16:40.150Z,93.40
2022-09-09T06:19:15.415Z,93.40
2022-09-09T06:21:43.247Z,93.50
2022-09-09T06:24:12.055Z,93.40
2022-09-09T06:26:42.919Z,93.40
2022-09-09T06:29:13.212Z,93.20
2022-09-09T06:31:42.461Z,93.20
2022-09-09T06:34:27.957Z,93.50
2022-09-09T06:36:58.766Z,93.20
2022-09-09T06:39:27.965Z,93.20
2022-09-09T06:41:55.512Z,93.10
2022-09-09T06:44:41.237Z,93.20
2022-09-09T06:47:13.052Z,93.00
2022-09-09T06:49:43.782Z,92.80
2022-09-09T06:52:14.026Z,92.90
2022-09-09T06:54:41.368Z,92.70
2022-09-09T06:57:33.690Z,92.60
2022-09-09T06:59:56.974Z,92.60
2022-09-09T07:02:24.828Z,92.30
2022-09-09T07:04:52.696Z,92.40
2022-09-09T07:07:20.081Z,92.40
2022-09-09T07:09:47.263Z,91.80
2022-09-09T07:12:14.673Z,92.40
2022-09-09T07:14:49.233Z,91.80
2022-09-09T07:17:16.228Z,91.80
2022-09-09T07:19:44.253Z,91.90
2022-09-09T07:22:11.816Z,91.50
2022-09-09T07:24:39.559Z,91.50
2022-09-09T07:27:07.252Z,91.90
2022-09-09T07:29:35.753Z,91.40
2022-09-09T07:32:04.822Z,91.10
2022-09-09T07:34:36.123Z,91.30
2022-09-09T07:37:03.169Z,90.60
2022-09-09T07:39:31.248Z,90.60
2022-09-09T07:41:59.143Z,90.60
2022-09-09T07:44:28.103Z,90.70
2022-09-09T07:47:21.295Z,90.60
2022-09-09T07:49:50.997Z,90.60
2022-09-09T07:52:23.289Z,90.60
2022-09-09T07:54:54.564Z,90.10
2022-09-09T07:57:22.556Z,89.20
2022-09-09T07:59:51.715Z,89.00
2022-09-09T08:02:18.684Z,90.10
2022-09-09T08:04:46.532Z,90.10
2022-09-09T08:07:14.874Z,90.10
2022-09-09T08:09:48.424Z,90.20
2022-09-09T08:12:21.454Z,90.20
2022-09-09T08:14:49.605Z,89.50
2022-09-09T08:17:16.893Z,89.40
2022-09-09T08:19:45.662Z,87.60
2022-09-09T08:22:17.761Z,87.90
2022-09-09T08:24:45.288Z,90.20
2022-09-09T08:27:13.872Z,89.60
2022-09-09T08:29:40.959Z,89.00
2022-09-09T08:32:08.149Z,87.30
2022-09-09T08:34:41.285Z,87.50
2022-09-09T08:37:12.107Z,87.40
2022-09-09T08:39:41.349Z,86.90
2022-09-09T08:42:14.739Z,85.20
2022-09-09T08:45:03.337Z,85.90
2022-09-09T08:47:40.812Z,83.10
2022-09-09T08:50:39.649Z,79.70
2022-09-09T08:53:24.038Z,79.50
2022-09-09T08:55:56.499Z,84.20
2022-09-09T08:58:34.775Z,79.30
2022-09-09T09:01:10.976Z,82.20
2022-09-09T09:04:22.409Z,83.50
2022-09-09T09:07:05.795Z,79.10
2022-09-09T09:10:18.900Z,82.70
2022-09-09T09:12:52.381Z,83.50
2022-09-09T09:15:32.701Z,86.00
2022-09-09T09:17:59.956Z,84.10
2022-09-09T09:20:52.236Z,84.00
2022-09-09T09:23:24.637Z,85.00
2022-09-09T09:25:56.397Z,86.20
2022-09-09T09:28:25.431Z,85.90
2022-09-09T09:31:12.711Z,86.40
2022-09-09T09:33:42.376Z,86.40
2022-09-09T09:36:09.760Z,86.40
2022-09-09T09:41:38.317Z,85.00
2022-09-09T09:44:06.231Z,85.40
2022-09-09T09:46:33.742Z,85.30
2022-09-09T09:49:11.862Z,84.40
2022-09-09T09:51:41.239Z,83.30
2022-09-09T09:54:14.425Z,84.30
2022-09-09T09:56:42.877Z,81.10
2022-09-09T09:59:38.801Z,83.90
2022-09-09T10:02:15.882Z,78.80
2022-09-09T10:04:43.390Z,78.70
2022-09-09T10:07:14.546Z,81.90
2022-09-09T10:09:41.815Z,79.80
2022-09-09T10:12:30.060Z,78.70
2022-09-09T10:15:28.389Z,78.60
2022-09-09T10:18:05.747Z,79.60
2022-09-09T10:20:40.382Z,77.40
2022-09-09T10:23:21.808Z,81.10
2022-09-09T10:26:17.864Z,80.50
2022-09-09T10:29:03.997Z,78.70
2022-09-09T10:31:58.638Z,78.70
2022-09-09T10:34:45.962Z,78.00
2022-09-09T10:37:28.879Z,78.80
2022-09-09T10:40:27.030Z,78.90
2022-09-09T10:43:02.221Z,76.80
2022-09-09T10:45:47.936Z,78.40
2022-09-09T10:48:32.151Z,78.60
2022-09-09T10:51:22.721Z,78.70
2022-09-09T10:54:08.539Z,78.70
2022-09-09T10:56:35.444Z,75.10
2022-09-09T10:59:11.136Z,80.40
2022-09-09T11:01:48.070Z,74.80
2022-09-09T11:04:33.621Z,75.10
2022-09-09T11:07:07.471Z,76.90
2022-09-09T11:09:44.586Z,79.20
2022-09-09T11:12:14.144Z,79.70
2022-09-09T11:14:44.687Z,81.30
2022-09-09T11:17:38.827Z,81.30
2022-09-09T11:20:07.098Z,82.70
2022-09-09T11:23:01.734Z,83.00
2022-09-09T11:25:35.195Z,84.20
2022-09-09T11:28:02.086Z,83.40
2022-09-09T11:30:54.796Z,83.00
2022-09-09T11:33:51.347Z,83.70
2022-09-09T11:36:30.256Z,83.10
2022-09-09T11:39:32.415Z,83.20
2022-09-09T11:42:14.825Z,84.10
2022-09-09T11:44:42.058Z,85.00
2022-09-09T11:47:31.130Z,83.60
2022-09-09T11:50:11.261Z,83.30
2022-09-09T11:52:40.015Z,83.30
2022-09-09T11:55:29.948Z,83.40
2022-09-09T11:58:06.977Z,83.80
2022-09-09T12:00:38.923Z,83.70
2022-09-09T12:03:06.165Z,82.50
2022-09-09T12:05:43.731Z,82.00
2022-09-09T12:08:18.618Z,85.00
2022-09-09T12:10:54.554Z,83.60
2022-09-09T12:13:23.921Z,81.40
2022-09-09T12:15:52.883Z,81.90
2022-09-09T12:18:23.847Z,82.60
2022-09-09T12:20:56.148Z,80.10
2022-09-09T12:23:56.951Z,81.60
2022-09-09T12:26:33.978Z,78.40
2022-09-09T12:29:25.547Z,78.00
2022-09-09T12:32:21.467Z,76.20
2022-09-09T12:34:50.628Z,77.40
2022-09-09T12:37:26.331Z,77.20
2022-09-09T12:39:56.517Z,78.90
2022-09-09T12:42:23.979Z,74.90
2022-09-09T12:45:00.411Z,77.70
2022-09-09T12:47:49.898Z,76.70
2022-09-09T12:50:24.010Z,77.50
2022-09-09T12:52:51.658Z,74.30
2022-09-09T12:55:22.889Z,77.40
2022-09-09T12:57:51.310Z,72.90
2022-09-09T13:00:21.654Z,72.50
2022-09-09T13:03:00.153Z,74.10
2022-09-09T13:05:37.549Z,76.40
2022-09-09T13:08:05.493Z,71.30
2022-09-09T13:11:01.823Z,75.00
2022-09-09T13:13:40.424Z,66.20
2022-09-09T13:16:09.540Z,65.70
2022-09-09T13:18:39.295Z,70.10
2022-09-09T13:21:06.247Z,71.40
2022-09-09T13:23:35.567Z,69.80
2022-09-09T13:26:05.288Z,71.10
2022-09-09T13:28:34.508Z,69.20
2022-09-09T13:31:03.516Z,68.10
2022-09-09T13:33:34.131Z,65.70
2022-09-09T13:36:08.882Z,68.10
2022-09-09T13:38:55.514Z,66.60
2022-09-09T13:41:27.437Z,67.10
2022-09-09T13:43:55.073Z,65.50
2022-09-09T13:46:27.994Z,69.20
2022-09-09T13:48:59.201Z,67.60
2022-09-09T13:51:43.485Z,68.80
2022-09-09T13:54:11.243Z,65.40
2022-09-09T13:56:39.767Z,69.40
2022-09-09T13:59:07.824Z,65.90
2022-09-09T14:01:35.982Z,64.80
2022-09-09T14:04:03.129Z,66.20
2022-09-09T14:06:30.379Z,68.00
2022-09-09T14:08:57.267Z,66.10
2022-09-09T14:11:24.178Z,67.20
2022-09-09T14:13:51.176Z,67.60
2022-09-09T14:16:18.990Z,66.70
2022-09-09T14:18:46.561Z,64.50
2022-09-09T14:21:13.535Z,64.40
2022-09-09T14:23:40.414Z,68.50
2022-09-09T14:26:07.732Z,65.80
2022-09-09T14:31:22.072Z,64.20
2022-09-09T14:33:48.966Z,66.50
2022-09-09T14:36:16.239Z,64.30
2022-09-09T14:38:43.889Z,66.10
2022-09-09T14:41:11.969Z,65.00
2022-09-09T14:43:39.967Z,64.20
2022-09-09T14:46:08.246Z,64.10
2022-09-09T14:48:36.126Z,62.80
2022-09-09T14:51:09.993Z,61.70
2022-09-09T14:53:37.417Z,61.10
2022-09-09T14:56:09.428Z,64.90
2022-09-09T14:58:36.962Z,62.60
2022-09-09T15:01:11.964Z,64.50
2022-09-09T15:03:39.561Z,65.30
2022-09-09T15:06:16.343Z,64.00
2022-09-09T15:08:44.771Z,64.50
2022-09-09T15:11:12.312Z,64.00
2022-09-09T15:13:40.331Z,64.80
2022-09-09T15:16:08.182Z,65.70
2022-09-09T15:18:35.221Z,64.90
2022-09-09T15:21:04.199Z,65.30
2022-09-09T15:23:35.867Z,66.00
2022-09-09T15:26:03.042Z,67.10
2022-09-09T15:28:29.944Z,66.60
2022-09-09T15:30:57.919Z,66.60
2022-09-09T15:33:24.819Z,67.20
2022-09-09T15:35:52.218Z,66.70
2022-09-09T15:38:20.034Z,66.40
2022-09-09T15:40:55.418Z,67.00
2022-09-09T15:43:23.158Z,66.70
2022-09-09T15:45:53.038Z,67.20
2022-09-09T15:48:20.027Z,68.80
2022-09-09T15:50:46.889Z,69.70
2022-09-09T15:53:13.775Z,74.40
2022-09-09T15:55:40.621Z,74.80
2022-09-09T15:58:08.838Z,74.60
2022-09-09T16:00:35.687Z,77.80
2022-09-09T16:03:02.544Z,77.50
2022-09-09T16:05:29.385Z,78.40
2022-09-09T16:07:56.207Z,78.30
2022-09-09T16:10:23.118Z,80.10
2022-09-09T16:12:50.496Z,83.00
2022-09-09T16:15:17.415Z,82.50
2022-09-09T16:17:47.268Z,82.30
2022-09-09T16:20:15.270Z,82.20
2022-09-09T16:22:43.182Z,80.80
2022-09-09T16:25:11.217Z,82.50
2022-09-09T16:27:38.257Z,82.40
2022-09-09T16:30:05.680Z,83.00
2022-09-09T16:32:32.603Z,83.30
2022-09-09T16:34:59.528Z,82.50
2022-09-09T16:37:26.450Z,84.30
2022-09-09T16:39:54.732Z,84.00
2022-09-09T16:42:21.638Z,84.30
2022-09-09T16:44:50.943Z,84.30
2022-09-09T16:47:17.809Z,84.30
2022-09-09T16:49:44.748Z,82.70
2022-09-09T16:52:11.625Z,84.30
2022-09-09T16:54:38.550Z,85.40
2022-09-09T16:57:05.490Z,85.50
2022-09-09T16:59:33.170Z,85.60
2022-09-09T17:02:00.132Z,86.30
2022-09-09T17:04:27.654Z,85.70
2022-09-09T17:06:55.066Z,85.80
2022-09-09T17:09:22.308Z,85.80
2022-09-09T17:11:51.515Z,85.90
2022-09-09T17:14:18.893Z,85.70
2022-09-09T17:16:45.763Z,86.60
2022-09-09T17:19:13.045Z,87.30
2022-09-09T17:22:00.149Z,87.00
2022-09-09T17:24:28.216Z,87.00
2022-09-09T17:26:55.401Z,87.90
2022-09-09T17:29:22.759Z,86.90
2022-09-09T17:31:49.622Z,86.70
2022-09-09T17:34:16.723Z,87.50
2022-09-09T17:36:43.593Z,87.90
2022-09-09T17:39:10.432Z,87.80
2022-09-09T17:41:38.676Z,87.90
2022-09-09T17:46:53.202Z,88.70
2022-09-09T17:49:20.053Z,88.90
2022-09-09T17:51:47.121Z,89.60
2022-09-09T17:54:16.015Z,90.00
2022-09-09T17:56:43.127Z,90.00
2022-09-09T17:59:10.818Z,89.80
2022-09-09T18:01:39.628Z,90.00
2022-09-09T18:04:07.826Z,90.20
2022-09-09T18:06:37.124Z,90.30
2022-09-09T18:09:08.334Z,90.30
2022-09-09T18:11:39.923Z,90.30
2022-09-09T18:14:06.959Z,90.30
2022-09-09T18:16:37.029Z,90.20
2022-09-09T18:19:05.131Z,90.30
2022-09-09T18:21:33.282Z,90.20
2022-09-09T18:24:06.963Z,90.50
2022-09-09T18:26:34.155Z,90.90
2022-09-09T18:29:06.636Z,90.60
2022-09-09T18:31:34.206Z,90.90
2022-09-09T18:34:02.942Z,90.60
2022-09-09T18:36:38.040Z,90.60
2022-09-09T18:39:05.516Z,90.60
2022-09-09T18:41:37.666Z,90.60
2022-09-09T18:44:06.690Z,90.70
2022-09-09T18:46:34.799Z,90.80
2022-09-09T18:49:01.942Z,90.70
2022-09-09T18:51:29.879Z,90.90
2022-09-09T18:53:58.413Z,90.70
2022-09-09T18:56:25.306Z,90.80
2022-09-09T18:58:53.306Z,90.80
2022-09-09T19:01:20.285Z,91.00
2022-09-09T19:03:47.409Z,91.00
2022-09-09T19:06:16.775Z,91.00
2022-09-09T19:08:44.582Z,90.90
2022-09-09T19:11:24.893Z,91.00
2022-09-09T19:13:53.015Z,91.20
2022-09-09T19:16:20.294Z,91.40
2022-09-09T19:18:48.318Z,91.20
2022-09-09T19:21:23.203Z,91.20
2022-09-09T19:23:55.083Z,91.40
2022-09-09T19:26:22.056Z,91.60
2022-09-09T19:28:50.237Z,91.50
2022-09-09T19:31:18.925Z,91.40
2022-09-09T19:33:47.213Z,91.60
2022-09-09T19:36:17.167Z,91.60
2022-09-09T19:38:45.644Z,91.50
2022-09-09T19:41:19.878Z,91.60
2022-09-09T19:43:47.035Z,91.90
2022-09-09T19:46:14.460Z,91.80
2022-09-09T19:48:41.990Z,91.70
2022-09-09T19:51:16.520Z,91.70
2022-09-09T19:53:45.882Z,91.90
2022-09-09T19:56:13.407Z,92.10
2022-09-09T19:58:40.697Z,92.00
2022-09-09T20:01:11.628Z,92.10
2022-09-09T20:03:39.384Z,92.10
2022-09-09T20:06:07.229Z,92.20
2022-09-09T20:08:34.444Z,92.00
2022-09-09T20:11:02.328Z,92.10
2022-09-09T20:13:30.239Z,91.80
2022-09-09T20:16:01.692Z,91.90
2022-09-09T20:18:33.417Z,91.80
2022-09-09T20:21:01.107Z,91.70
2022-09-09T20:23:28.613Z,91.80
2022-09-09T20:25:55.559Z,92.00
2022-09-09T20:28:22.743Z,91.80
2022-09-09T20:30:51.549Z,91.80
2022-09-09T20:33:18.647Z,92.10
2022-09-09T20:35:45.800Z,92.30
2022-09-09T20:38:12.704Z,92.00
2022-09-09T20:40:39.948Z,92.00
2022-09-09T20:43:06.867Z,92.10
2022-09-09T20:45:38.181Z,92.10
2022-09-09T20:48:05.803Z,92.30
2022-09-09T20:50:35.244Z,92.20
2022-09-09T20:53:06.338Z,92.10
2022-09-09T20:55:34.411Z,92.40
2022-09-09T20:58:01.462Z,92.20
2022-09-09T21:00:30.096Z,92.10
2022-09-09T21:02:57.376Z,92.10
2022-09-09T21:05:25.848Z,92.00
2022-09-09T21:07:53.110Z,92.20
2022-09-09T21:10:20.358Z,92.20
2022-09-09T21:12:47.295Z,92.20
2022-09-09T21:15:14.274Z,92.20
2022-09-09T21:17:41.099Z,92.30
2022-09-09T21:20:08.991Z,92.30
2022-09-09T21:22:35.951Z,92.10
2022-09-09T21:25:02.877Z,92.20
2022-09-09T21:27:30.069Z,92.30
2022-09-09T21:29:56.979Z,92.20
2022-09-09T21:32:23.850Z,92.20
2022-09-09T21:34:50.748Z,92.20
2022-09-09T21:37:17.678Z,92.20
2022-09-09T21:39:44.670Z,92.30
2022-09-09T21:42:11.565Z,92.10
2022-09-09T21:44:38.464Z,92.30
2022-09-09T21:47:05.455Z,92.40
2022-09-09T21:49:32.837Z,92.10
2022-09-09T21:52:01.204Z,92.20
2022-09-09T21:54:31.716Z,92.20
2022-09-09T21:56:58.641Z,92.40
2022-09-09T21:59:27.366Z,92.40
2022-09-09T22:01:54.928Z,92.40
2022-09-09T22:04:21.974Z,92.40
2022-09-09T22:06:48.895Z,92.50
2022-09-09T22:09:15.939Z,92.20
2022-09-09T22:11:42.920Z,92.10
2022-09-09T22:14:09.793Z,92.00
2022-09-09T22:16:36.694Z,92.10
2022-09-09T22:19:03.677Z,92.20
2022-09-09T22:21:31.176Z,92.30
2022-09-09T22:24:00.052Z,92.30
2022-09-09T22:26:27.870Z,92.30
2022-09-09T22:28:57.298Z,92.30
2022-09-09T22:31:24.865Z,92.40
2022-09-09T22:33:54.606Z,92.40
2022-09-09T22:36:21.613Z,92.40
2022-09-09T22:38:49.171Z,92.40
2022-09-09T22:41:17.229Z,92.40
2022-09-09T22:43:44.351Z,92.60
2022-09-09T22:46:11.293Z,92.80
2022-09-09T22:48:38.632Z,92.70
2022-09-09T22:51:11.125Z,92.80
2022-09-09T22:53:38.982Z,92.80
2022-09-09T22:56:07.696Z,92.90
2022-09-09T22:58:36.761Z,93.00
2022-09-09T23:01:09.990Z,93.20
2022-09-09T23:03:36.916Z,93.30
2022-09-09T23:06:04.322Z,93.40
2022-09-09T23:08:36.639Z,93.20
2022-09-09T23:11:10.500Z,93.20
2022-09-09T23:13:42.094Z,93.20
2022-09-09T23:16:10.697Z,93.10
2022-09-09T23:18:40.376Z,93.00
2022-09-09T23:21:11.483Z,93.10
2022-09-09T23:23:39.180Z,93.20
2022-09-09T23:26:07.184Z,93.10
2022-09-09T23:28:35.283Z,93.00
2022-09-09T23:31:02.941Z,93.00
2022-09-09T23:33:30.319Z,93.00
2022-09-09T23:36:08.447Z,93.00
2022-09-09T23:38:39.441Z,93.00
2022-09-09T23:41:08.755Z,92.90
2022-09-09T23:43:37.384Z,93.10
2022-09-09T23:46:04.872Z,93.10
2022-09-09T23:48:32.029Z,93.10
2022-09-09T23:50:59.770Z,93.00
2022-09-09T23:53:26.782Z,92.80
2022-09-09T23:55:53.917Z,92.80
2022-09-09T23:58:21.159Z,92.90
